sensor_id;sensor_type;location;lat;lon;timestamp;P1;durP1;ratioP1;P2;durP2;ratioP2
62419;SDS011;48460;51.616;5.426;2023-07-22T00:02:04;20.50;;;11.60;;
62419;SDS011;48460;51.616;5.426;2023-07-22T00:04:44;22.45;;;13.02;;
62419;SDS011;48460;51.616;5.426;2023-07-22T00:07:10;20.38;;;12.13;;
62419;SDS011;48460;51.616;5.426;2023-07-22T00:09:45;23.27;;;12.27;;
62419;SDS011;48460;51.616;5.426;2023-07-22T00:12:31;21.30;;;12.52;;
62419;SDS011;48460;51.616;5.426;2023-07-22T00:15:08;24.45;;;12.20;;
62419;SDS011;48460;51.616;5.426;2023-07-22T00:17:53;22.38;;;12.20;;
62419;SDS011;48460;51.616;5.426;2023-07-22T00:21:01;22.92;;;13.18;;
62419;SDS011;48460;51.616;5.426;2023-07-22T00:23:37;23.70;;;13.18;;
62419;SDS011;48460;51.616;5.426;2023-07-22T00:26:17;22.65;;;13.40;;
62419;SDS011;48460;51.616;5.426;2023-07-22T00:28:47;23.70;;;14.07;;
62419;SDS011;48460;51.616;5.426;2023-07-22T00:31:18;29.70;;;14.25;;
62419;SDS011;48460;51.616;5.426;2023-07-22T00:33:46;26.50;;;14.57;;
62419;SDS011;48460;51.616;5.426;2023-07-22T00:36:12;27.23;;;14.65;;
62419;SDS011;48460;51.616;5.426;2023-07-22T00:38:48;33.65;;;16.05;;
62419;SDS011;48460;51.616;5.426;2023-07-22T00:41:25;29.13;;;15.60;;
62419;SDS011;48460;51.616;5.426;2023-07-22T00:43:53;28.98;;;16.73;;
62419;SDS011;48460;51.616;5.426;2023-07-22T00:46:21;30.08;;;16.50;;
62419;SDS011;48460;51.616;5.426;2023-07-22T00:48:47;31.60;;;16.17;;
62419;SDS011;48460;51.616;5.426;2023-07-22T00:51:17;32.95;;;16.83;;
62419;SDS011;48460;51.616;5.426;2023-07-22T00:53:44;27.83;;;16.17;;
62419;SDS011;48460;51.616;5.426;2023-07-22T00:56:11;28.08;;;15.73;;
62419;SDS011;48460;51.616;5.426;2023-07-22T00:58:37;30.70;;;15.32;;
62419;SDS011;48460;51.616;5.426;2023-07-22T01:01:05;30.77;;;16.73;;
62419;SDS011;48460;51.616;5.426;2023-07-22T01:03:31;30.60;;;16.25;;
62419;SDS011;48460;51.616;5.426;2023-07-22T01:05:59;33.67;;;16.70;;
62419;SDS011;48460;51.616;5.426;2023-07-22T01:08:28;31.90;;;16.33;;
62419;SDS011;48460;51.616;5.426;2023-07-22T01:10:53;35.45;;;16.52;;
62419;SDS011;48460;51.616;5.426;2023-07-22T01:13:28;28.23;;;16.80;;
62419;SDS011;48460;51.616;5.426;2023-07-22T01:15:57;30.45;;;15.68;;
62419;SDS011;48460;51.616;5.426;2023-07-22T01:18:37;29.20;;;15.90;;
62419;SDS011;48460;51.616;5.426;2023-07-22T01:21:11;29.85;;;15.55;;
62419;SDS011;48460;51.616;5.426;2023-07-22T01:23:45;27.65;;;15.77;;
62419;SDS011;48460;51.616;5.426;2023-07-22T01:26:12;28.95;;;15.32;;
62419;SDS011;48460;51.616;5.426;2023-07-22T01:28:47;28.63;;;15.93;;
62419;SDS011;48460;51.616;5.426;2023-07-22T01:31:22;30.08;;;15.40;;
62419;SDS011;48460;51.616;5.426;2023-07-22T01:33:59;29.15;;;15.45;;
62419;SDS011;48460;51.616;5.426;2023-07-22T01:36:28;28.38;;;15.82;;
62419;SDS011;48460;51.616;5.426;2023-07-22T01:39:01;29.20;;;16.20;;
62419;SDS011;48460;51.616;5.426;2023-07-22T01:41:31;28.53;;;15.47;;
62419;SDS011;48460;51.616;5.426;2023-07-22T01:44:03;28.05;;;15.20;;
62419;SDS011;48460;51.616;5.426;2023-07-22T01:46:31;28.15;;;15.07;;
62419;SDS011;48460;51.616;5.426;2023-07-22T01:48:58;29.63;;;15.25;;
62419;SDS011;48460;51.616;5.426;2023-07-22T01:51:34;29.13;;;16.17;;
62419;SDS011;48460;51.616;5.426;2023-07-22T01:54:10;26.27;;;14.77;;
62419;SDS011;48460;51.616;5.426;2023-07-22T01:56:51;27.73;;;15.73;;
62419;SDS011;48460;51.616;5.426;2023-07-22T01:59:24;27.00;;;15.07;;
62419;SDS011;48460;51.616;5.426;2023-07-22T02:01:55;26.55;;;14.13;;
62419;SDS011;48460;51.616;5.426;2023-07-22T02:04:27;27.83;;;14.10;;
62419;SDS011;48460;51.616;5.426;2023-07-22T02:06:53;29.08;;;14.10;;
62419;SDS011;48460;51.616;5.426;2023-07-22T02:09:22;27.63;;;15.38;;
62419;SDS011;48460;51.616;5.426;2023-07-22T02:11:52;28.58;;;15.13;;
62419;SDS011;48460;51.616;5.426;2023-07-22T02:14:23;26.95;;;15.23;;
62419;SDS011;48460;51.616;5.426;2023-07-22T02:16:58;28.40;;;14.80;;
62419;SDS011;48460;51.616;5.426;2023-07-22T02:19:36;27.33;;;14.82;;
62419;SDS011;48460;51.616;5.426;2023-07-22T02:22:08;28.80;;;13.63;;
62419;SDS011;48460;51.616;5.426;2023-07-22T02:24:36;28.63;;;14.10;;
62419;SDS011;48460;51.616;5.426;2023-07-22T02:27:11;28.55;;;14.32;;
62419;SDS011;48460;51.616;5.426;2023-07-22T02:29:37;25.73;;;14.38;;
62419;SDS011;48460;51.616;5.426;2023-07-22T02:32:20;27.35;;;14.05;;
62419;SDS011;48460;51.616;5.426;2023-07-22T02:34:54;24.83;;;13.70;;
62419;SDS011;48460;51.616;5.426;2023-07-22T02:37:26;26.75;;;14.20;;
62419;SDS011;48460;51.616;5.426;2023-07-22T02:39:54;23.27;;;13.82;;
62419;SDS011;48460;51.616;5.426;2023-07-22T02:42:35;23.92;;;13.73;;
62419;SDS011;48460;51.616;5.426;2023-07-22T02:45:05;24.90;;;13.82;;
62419;SDS011;48460;51.616;5.426;2023-07-22T02:47:58;25.35;;;14.18;;
62419;SDS011;48460;51.616;5.426;2023-07-22T02:50:24;25.30;;;13.60;;
62419;SDS011;48460;51.616;5.426;2023-07-22T02:53:04;27.33;;;14.82;;
62419;SDS011;48460;51.616;5.426;2023-07-22T02:55:37;25.98;;;14.00;;
62419;SDS011;48460;51.616;5.426;2023-07-22T02:58:13;25.60;;;14.00;;
62419;SDS011;48460;51.616;5.426;2023-07-22T03:00:48;23.90;;;13.98;;
62419;SDS011;48460;51.616;5.426;2023-07-22T03:03:21;28.17;;;14.40;;
62419;SDS011;48460;51.616;5.426;2023-07-22T03:06:10;21.63;;;13.48;;
62419;SDS011;48460;51.616;5.426;2023-07-22T03:11:15;24.88;;;13.65;;
62419;SDS011;48460;51.616;5.426;2023-07-22T03:13:42;27.08;;;14.18;;
62419;SDS011;48460;51.616;5.426;2023-07-22T03:16:16;27.17;;;13.93;;
62419;SDS011;48460;51.616;5.426;2023-07-22T03:18:43;26.08;;;13.30;;
62419;SDS011;48460;51.616;5.426;2023-07-22T03:21:14;27.45;;;14.82;;
62419;SDS011;48460;51.616;5.426;2023-07-22T03:23:59;25.92;;;14.40;;
62419;SDS011;48460;51.616;5.426;2023-07-22T03:26:37;25.75;;;13.88;;
62419;SDS011;48460;51.616;5.426;2023-07-22T03:29:07;24.58;;;14.13;;
62419;SDS011;48460;51.616;5.426;2023-07-22T03:31:44;23.90;;;14.10;;
62419;SDS011;48460;51.616;5.426;2023-07-22T03:34:12;32.95;;;16.55;;
62419;SDS011;48460;51.616;5.426;2023-07-22T03:36:44;24.17;;;13.90;;
62419;SDS011;48460;51.616;5.426;2023-07-22T03:39:11;29.17;;;14.27;;
62419;SDS011;48460;51.616;5.426;2023-07-22T03:41:54;27.30;;;13.80;;
62419;SDS011;48460;51.616;5.426;2023-07-22T03:44:30;27.60;;;14.15;;
62419;SDS011;48460;51.616;5.426;2023-07-22T03:46:56;26.13;;;14.05;;
62419;SDS011;48460;51.616;5.426;2023-07-22T03:49:30;27.58;;;13.95;;
62419;SDS011;48460;51.616;5.426;2023-07-22T03:51:58;23.05;;;13.80;;
62419;SDS011;48460;51.616;5.426;2023-07-22T03:54:26;23.33;;;13.25;;
62419;SDS011;48460;51.616;5.426;2023-07-22T03:57:13;27.30;;;14.00;;
62419;SDS011;48460;51.616;5.426;2023-07-22T03:59:51;27.45;;;14.30;;
62419;SDS011;48460;51.616;5.426;2023-07-22T04:02:22;24.65;;;14.05;;
62419;SDS011;48460;51.616;5.426;2023-07-22T04:04:51;23.10;;;14.90;;
62419;SDS011;48460;51.616;5.426;2023-07-22T04:07:19;24.92;;;13.80;;
62419;SDS011;48460;51.616;5.426;2023-07-22T04:09:47;27.20;;;14.32;;
62419;SDS011;48460;51.616;5.426;2023-07-22T04:12:29;27.80;;;14.00;;
62419;SDS011;48460;51.616;5.426;2023-07-22T04:15:06;29.77;;;14.23;;
62419;SDS011;48460;51.616;5.426;2023-07-22T04:17:45;27.50;;;14.27;;
62419;SDS011;48460;51.616;5.426;2023-07-22T04:20:16;27.95;;;14.43;;
62419;SDS011;48460;51.616;5.426;2023-07-22T04:22:43;24.58;;;13.82;;
62419;SDS011;48460;51.616;5.426;2023-07-22T04:25:26;23.92;;;13.75;;
62419;SDS011;48460;51.616;5.426;2023-07-22T04:28:06;24.35;;;13.90;;
62419;SDS011;48460;51.616;5.426;2023-07-22T04:30:34;26.13;;;14.23;;
62419;SDS011;48460;51.616;5.426;2023-07-22T04:33:21;27.15;;;13.90;;
62419;SDS011;48460;51.616;5.426;2023-07-22T04:35:49;25.50;;;14.27;;
62419;SDS011;48460;51.616;5.426;2023-07-22T04:38:48;28.13;;;14.35;;
62419;SDS011;48460;51.616;5.426;2023-07-22T04:41:16;26.85;;;13.15;;
62419;SDS011;48460;51.616;5.426;2023-07-22T04:43:45;27.17;;;13.90;;
62419;SDS011;48460;51.616;5.426;2023-07-22T04:46:13;28.55;;;13.50;;
62419;SDS011;48460;51.616;5.426;2023-07-22T04:48:49;27.10;;;14.13;;
62419;SDS011;48460;51.616;5.426;2023-07-22T04:51:27;25.10;;;13.85;;
62419;SDS011;48460;51.616;5.426;2023-07-22T04:54:02;24.02;;;13.73;;
62419;SDS011;48460;51.616;5.426;2023-07-22T04:56:36;28.02;;;13.82;;
62419;SDS011;48460;51.616;5.426;2023-07-22T04:59:03;27.40;;;13.55;;
62419;SDS011;48460;51.616;5.426;2023-07-22T05:01:38;25.65;;;13.50;;
62419;SDS011;48460;51.616;5.426;2023-07-22T05:04:24;25.63;;;13.15;;
62419;SDS011;48460;51.616;5.426;2023-07-22T05:06:50;23.27;;;13.75;;
62419;SDS011;48460;51.616;5.426;2023-07-22T05:09:26;30.60;;;14.55;;
62419;SDS011;48460;51.616;5.426;2023-07-22T05:12:01;26.05;;;13.57;;
62419;SDS011;48460;51.616;5.426;2023-07-22T05:14:32;25.60;;;14.57;;
62419;SDS011;48460;51.616;5.426;2023-07-22T05:17:00;29.83;;;15.07;;
62419;SDS011;48460;51.616;5.426;2023-07-22T05:19:33;24.73;;;13.40;;
62419;SDS011;48460;51.616;5.426;2023-07-22T05:22:16;30.05;;;14.82;;
62419;SDS011;48460;51.616;5.426;2023-07-22T05:24:53;22.52;;;13.45;;
62419;SDS011;48460;51.616;5.426;2023-07-22T05:27:21;27.15;;;13.88;;
62419;SDS011;48460;51.616;5.426;2023-07-22T05:29:50;33.08;;;14.85;;
62419;SDS011;48460;51.616;5.426;2023-07-22T05:32:33;28.23;;;14.05;;
62419;SDS011;48460;51.616;5.426;2023-07-22T05:35:09;31.08;;;14.95;;
62419;SDS011;48460;51.616;5.426;2023-07-22T05:37:37;28.23;;;14.82;;
62419;SDS011;48460;51.616;5.426;2023-07-22T05:40:05;28.85;;;14.52;;
62419;SDS011;48460;51.616;5.426;2023-07-22T05:42:38;28.05;;;14.48;;
62419;SDS011;48460;51.616;5.426;2023-07-22T05:45:16;26.55;;;14.57;;
62419;SDS011;48460;51.616;5.426;2023-07-22T05:47:53;25.98;;;14.68;;
62419;SDS011;48460;51.616;5.426;2023-07-22T05:50:28;30.60;;;13.63;;
62419;SDS011;48460;51.616;5.426;2023-07-22T05:53:12;30.23;;;13.95;;
62419;SDS011;48460;51.616;5.426;2023-07-22T05:55:38;28.25;;;14.48;;
62419;SDS011;48460;51.616;5.426;2023-07-22T05:58:10;29.10;;;14.65;;
62419;SDS011;48460;51.616;5.426;2023-07-22T06:00:43;27.15;;;14.38;;
62419;SDS011;48460;51.616;5.426;2023-07-22T06:03:16;26.85;;;14.20;;
62419;SDS011;48460;51.616;5.426;2023-07-22T06:05:54;31.55;;;15.10;;
62419;SDS011;48460;51.616;5.426;2023-07-22T06:08:24;26.95;;;14.48;;
62419;SDS011;48460;51.616;5.426;2023-07-22T06:10:54;25.27;;;13.18;;
62419;SDS011;48460;51.616;5.426;2023-07-22T06:13:33;32.33;;;14.95;;
62419;SDS011;48460;51.616;5.426;2023-07-22T06:16:18;30.08;;;14.48;;
62419;SDS011;48460;51.616;5.426;2023-07-22T06:18:59;24.33;;;13.48;;
62419;SDS011;48460;51.616;5.426;2023-07-22T06:21:41;25.88;;;14.75;;
62419;SDS011;48460;51.616;5.426;2023-07-22T06:24:22;28.83;;;14.73;;
62419;SDS011;48460;51.616;5.426;2023-07-22T06:26:55;26.90;;;14.43;;
62419;SDS011;48460;51.616;5.426;2023-07-22T06:29:28;25.60;;;12.95;;
62419;SDS011;48460;51.616;5.426;2023-07-22T06:32:08;26.05;;;14.25;;
62419;SDS011;48460;51.616;5.426;2023-07-22T06:35:00;28.92;;;13.27;;
62419;SDS011;48460;51.616;5.426;2023-07-22T06:37:35;32.63;;;13.77;;
62419;SDS011;48460;51.616;5.426;2023-07-22T06:40:09;28.45;;;14.32;;
62419;SDS011;48460;51.616;5.426;2023-07-22T06:42:42;28.67;;;13.88;;
62419;SDS011;48460;51.616;5.426;2023-07-22T06:45:12;27.73;;;13.87;;
62419;SDS011;48460;51.616;5.426;2023-07-22T06:47:42;30.48;;;14.60;;
62419;SDS011;48460;51.616;5.426;2023-07-22T06:50:20;29.88;;;14.30;;
62419;SDS011;48460;51.616;5.426;2023-07-22T06:53:00;27.55;;;14.25;;
62419;SDS011;48460;51.616;5.426;2023-07-22T06:55:51;28.35;;;13.60;;
62419;SDS011;48460;51.616;5.426;2023-07-22T06:58:25;31.17;;;14.07;;
62419;SDS011;48460;51.616;5.426;2023-07-22T07:01:23;31.60;;;13.93;;
62419;SDS011;48460;51.616;5.426;2023-07-22T07:03:58;29.60;;;15.50;;
62419;SDS011;48460;51.616;5.426;2023-07-22T07:09:25;29.15;;;13.75;;
62419;SDS011;48460;51.616;5.426;2023-07-22T07:12:03;31.65;;;13.98;;
62419;SDS011;48460;51.616;5.426;2023-07-22T07:14:41;28.20;;;14.45;;
62419;SDS011;48460;51.616;5.426;2023-07-22T07:17:22;24.15;;;13.88;;
62419;SDS011;48460;51.616;5.426;2023-07-22T07:19:49;26.10;;;13.30;;
62419;SDS011;48460;51.616;5.426;2023-07-22T07:22:15;28.50;;;13.57;;
62419;SDS011;48460;51.616;5.426;2023-07-22T07:24:50;23.98;;;12.65;;
62419;SDS011;48460;51.616;5.426;2023-07-22T07:27:36;26.75;;;12.77;;
62419;SDS011;48460;51.616;5.426;2023-07-22T07:30:20;23.17;;;12.30;;
62419;SDS011;48460;51.616;5.426;2023-07-22T07:32:57;26.65;;;14.20;;
62419;SDS011;48460;51.616;5.426;2023-07-22T07:35:27;24.05;;;13.20;;
62419;SDS011;48460;51.616;5.426;2023-07-22T07:37:55;26.60;;;13.50;;
62419;SDS011;48460;51.616;5.426;2023-07-22T07:40:38;24.98;;;13.55;;
62419;SDS011;48460;51.616;5.426;2023-07-22T07:43:27;28.75;;;12.65;;
62419;SDS011;48460;51.616;5.426;2023-07-22T07:46:24;26.27;;;12.65;;
62419;SDS011;48460;51.616;5.426;2023-07-22T07:48:58;27.38;;;13.13;;
62419;SDS011;48460;51.616;5.426;2023-07-22T07:51:38;28.02;;;13.65;;
62419;SDS011;48460;51.616;5.426;2023-07-22T07:54:11;21.92;;;12.50;;
62419;SDS011;48460;51.616;5.426;2023-07-22T07:59:41;29.17;;;12.85;;
62419;SDS011;48460;51.616;5.426;2023-07-22T08:02:18;24.52;;;12.23;;
62419;SDS011;48460;51.616;5.426;2023-07-22T08:04:47;24.88;;;12.85;;
62419;SDS011;48460;51.616;5.426;2023-07-22T08:07:15;25.67;;;12.70;;
62419;SDS011;48460;51.616;5.426;2023-07-22T08:09:49;27.63;;;13.10;;
62419;SDS011;48460;51.616;5.426;2023-07-22T08:12:18;26.67;;;12.93;;
62419;SDS011;48460;51.616;5.426;2023-07-22T08:15:13;24.50;;;12.25;;
62419;SDS011;48460;51.616;5.426;2023-07-22T08:18:29;26.70;;;11.23;;
62419;SDS011;48460;51.616;5.426;2023-07-22T08:21:13;18.73;;;10.55;;
62419;SDS011;48460;51.616;5.426;2023-07-22T08:23:38;21.15;;;11.45;;
62419;SDS011;48460;51.616;5.426;2023-07-22T08:26:13;20.25;;;11.35;;
62419;SDS011;48460;51.616;5.426;2023-07-22T08:28:56;27.10;;;12.90;;
62419;SDS011;48460;51.616;5.426;2023-07-22T08:31:24;19.60;;;11.15;;
62419;SDS011;48460;51.616;5.426;2023-07-22T08:33:52;20.98;;;10.85;;
62419;SDS011;48460;51.616;5.426;2023-07-22T08:36:27;19.38;;;9.93;;
62419;SDS011;48460;51.616;5.426;2023-07-22T08:39:06;22.05;;;9.43;;
62419;SDS011;48460;51.616;5.426;2023-07-22T08:41:51;18.10;;;10.35;;
62419;SDS011;48460;51.616;5.426;2023-07-22T08:48:57;20.55;;;9.10;;
62419;SDS011;48460;51.616;5.426;2023-07-22T08:51:28;15.55;;;8.57;;
62419;SDS011;48460;51.616;5.426;2023-07-22T08:53:56;17.20;;;8.65;;
62419;SDS011;48460;51.616;5.426;2023-07-22T08:56:27;16.60;;;8.10;;
62419;SDS011;48460;51.616;5.426;2023-07-22T08:58:56;17.35;;;8.40;;
62419;SDS011;48460;51.616;5.426;2023-07-22T09:01:24;15.02;;;9.10;;
62419;SDS011;48460;51.616;5.426;2023-07-22T09:04:09;16.85;;;8.25;;
62419;SDS011;48460;51.616;5.426;2023-07-22T09:06:46;16.83;;;7.72;;
62419;SDS011;48460;51.616;5.426;2023-07-22T09:09:13;19.15;;;7.78;;
62419;SDS011;48460;51.616;5.426;2023-07-22T09:11:51;12.70;;;7.80;;
62419;SDS011;48460;51.616;5.426;2023-07-22T09:14:33;14.00;;;7.75;;
62419;SDS011;48460;51.616;5.426;2023-07-22T09:20:42;16.20;;;7.18;;
62419;SDS011;48460;51.616;5.426;2023-07-22T09:23:18;14.13;;;6.78;;
62419;SDS011;48460;51.616;5.426;2023-07-22T09:25:57;13.20;;;6.68;;
62419;SDS011;48460;51.616;5.426;2023-07-22T09:28:55;14.27;;;6.78;;
62419;SDS011;48460;51.616;5.426;2023-07-22T09:31:28;17.88;;;7.00;;
62419;SDS011;48460;51.616;5.426;2023-07-22T09:34:08;20.10;;;8.55;;
62419;SDS011;48460;51.616;5.426;2023-07-22T09:36:55;15.93;;;7.90;;
62419;SDS011;48460;51.616;5.426;2023-07-22T09:39:25;12.30;;;7.40;;
62419;SDS011;48460;51.616;5.426;2023-07-22T09:41:57;17.40;;;9.07;;
62419;SDS011;48460;51.616;5.426;2023-07-22T09:44:30;20.50;;;8.98;;
62419;SDS011;48460;51.616;5.426;2023-07-22T09:47:13;14.60;;;8.27;;
62419;SDS011;48460;51.616;5.426;2023-07-22T09:52:22;20.13;;;8.18;;
62419;SDS011;48460;51.616;5.426;2023-07-22T09:54:56;14.88;;;7.57;;
62419;SDS011;48460;51.616;5.426;2023-07-22T09:57:28;14.43;;;7.82;;
62419;SDS011;48460;51.616;5.426;2023-07-22T09:59:56;17.40;;;8.38;;
62419;SDS011;48460;51.616;5.426;2023-07-22T10:02:27;14.32;;;7.88;;
62419;SDS011;48460;51.616;5.426;2023-07-22T10:05:19;15.57;;;6.73;;
62419;SDS011;48460;51.616;5.426;2023-07-22T10:07:49;11.13;;;6.50;;
62419;SDS011;48460;51.616;5.426;2023-07-22T10:10:22;19.42;;;6.15;;
62419;SDS011;48460;51.616;5.426;2023-07-22T10:13:18;12.20;;;5.55;;
62419;SDS011;48460;51.616;5.426;2023-07-22T10:15:45;13.43;;;5.20;;
62419;SDS011;48460;51.616;5.426;2023-07-22T10:18:11;13.45;;;5.65;;
62419;SDS011;48460;51.616;5.426;2023-07-22T10:20:56;12.77;;;5.32;;
62419;SDS011;48460;51.616;5.426;2023-07-22T10:23:23;10.50;;;4.80;;
62419;SDS011;48460;51.616;5.426;2023-07-22T10:26:00;11.50;;;4.75;;
62419;SDS011;48460;51.616;5.426;2023-07-22T10:28:32;10.88;;;4.70;;
62419;SDS011;48460;51.616;5.426;2023-07-22T10:31:09;9.52;;;4.57;;
62419;SDS011;48460;51.616;5.426;2023-07-22T10:33:48;12.00;;;4.90;;
62419;SDS011;48460;51.616;5.426;2023-07-22T10:36:17;11.75;;;4.43;;
62419;SDS011;48460;51.616;5.426;2023-07-22T10:38:43;9.82;;;4.10;;
62419;SDS011;48460;51.616;5.426;2023-07-22T10:41:38;12.70;;;4.90;;
62419;SDS011;48460;51.616;5.426;2023-07-22T10:44:15;12.77;;;5.13;;
62419;SDS011;48460;51.616;5.426;2023-07-22T10:46:44;11.63;;;4.10;;
62419;SDS011;48460;51.616;5.426;2023-07-22T10:49:43;9.15;;;4.18;;
62419;SDS011;48460;51.616;5.426;2023-07-22T10:52:13;7.40;;;3.72;;
62419;SDS011;48460;51.616;5.426;2023-07-22T10:55:21;8.35;;;3.95;;
62419;SDS011;48460;51.616;5.426;2023-07-22T10:57:58;7.75;;;3.90;;
62419;SDS011;48460;51.616;5.426;2023-07-22T11:00:34;7.70;;;3.80;;
62419;SDS011;48460;51.616;5.426;2023-07-22T11:03:13;7.03;;;3.83;;
62419;SDS011;48460;51.616;5.426;2023-07-22T11:05:52;8.38;;;3.50;;
62419;SDS011;48460;51.616;5.426;2023-07-22T11:08:42;6.32;;;3.58;;
62419;SDS011;48460;51.616;5.426;2023-07-22T11:11:15;12.20;;;3.67;;
62419;SDS011;48460;51.616;5.426;2023-07-22T11:14:12;7.85;;;3.50;;
62419;SDS011;48460;51.616;5.426;2023-07-22T11:16:59;6.18;;;3.28;;
62419;SDS011;48460;51.616;5.426;2023-07-22T11:19:41;7.85;;;3.08;;
62419;SDS011;48460;51.616;5.426;2023-07-22T11:22:24;6.03;;;2.92;;
62419;SDS011;48460;51.616;5.426;2023-07-22T11:25:19;6.55;;;3.30;;
62419;SDS011;48460;51.616;5.426;2023-07-22T11:28:17;6.82;;;2.85;;
62419;SDS011;48460;51.616;5.426;2023-07-22T11:30:45;7.35;;;2.70;;
62419;SDS011;48460;51.616;5.426;2023-07-22T11:33:26;8.23;;;3.05;;
62419;SDS011;48460;51.616;5.426;2023-07-22T11:36:14;5.70;;;2.60;;
62419;SDS011;48460;51.616;5.426;2023-07-22T11:42:22;9.77;;;2.97;;
62419;SDS011;48460;51.616;5.426;2023-07-22T11:45:02;8.27;;;2.80;;
62419;SDS011;48460;51.616;5.426;2023-07-22T11:48:12;6.75;;;2.80;;
62419;SDS011;48460;51.616;5.426;2023-07-22T11:51:02;6.75;;;3.20;;
62419;SDS011;48460;51.616;5.426;2023-07-22T11:53:36;6.65;;;3.15;;
62419;SDS011;48460;51.616;5.426;2023-07-22T11:56:05;5.50;;;2.83;;
62419;SDS011;48460;51.616;5.426;2023-07-22T11:58:48;8.15;;;3.38;;
62419;SDS011;48460;51.616;5.426;2023-07-22T12:01:42;10.35;;;3.22;;
62419;SDS011;48460;51.616;5.426;2023-07-22T12:04:30;6.85;;;3.28;;
62419;SDS011;48460;51.616;5.426;2023-07-22T12:07:39;6.45;;;3.13;;
62419;SDS011;48460;51.616;5.426;2023-07-22T12:10:06;7.75;;;3.17;;
62419;SDS011;48460;51.616;5.426;2023-07-22T12:15:35;6.80;;;3.00;;
62419;SDS011;48460;51.616;5.426;2023-07-22T12:18:45;6.30;;;3.00;;
62419;SDS011;48460;51.616;5.426;2023-07-22T12:21:40;7.50;;;3.00;;
62419;SDS011;48460;51.616;5.426;2023-07-22T12:24:41;6.88;;;3.35;;
62419;SDS011;48460;51.616;5.426;2023-07-22T12:27:39;9.20;;;2.97;;
62419;SDS011;48460;51.616;5.426;2023-07-22T12:30:11;4.15;;;2.67;;
62419;SDS011;48460;51.616;5.426;2023-07-22T12:40:12;5.97;;;3.10;;
62419;SDS011;48460;51.616;5.426;2023-07-22T12:42:51;6.68;;;3.10;;
62419;SDS011;48460;51.616;5.426;2023-07-22T12:45:35;6.03;;;2.97;;
62419;SDS011;48460;51.616;5.426;2023-07-22T12:48:24;5.03;;;2.78;;
62419;SDS011;48460;51.616;5.426;2023-07-22T12:51:19;5.97;;;3.15;;
62419;SDS011;48460;51.616;5.426;2023-07-22T12:54:07;5.03;;;3.17;;
62419;SDS011;48460;51.616;5.426;2023-07-22T12:59:46;7.25;;;3.13;;
62419;SDS011;48460;51.616;5.426;2023-07-22T13:02:27;7.63;;;3.08;;
62419;SDS011;48460;51.616;5.426;2023-07-22T13:05:24;6.55;;;3.00;;
62419;SDS011;48460;51.616;5.426;2023-07-22T13:07:55;5.90;;;3.00;;
62419;SDS011;48460;51.616;5.426;2023-07-22T13:10:27;4.47;;;3.00;;
62419;SDS011;48460;51.616;5.426;2023-07-22T13:13:19;6.03;;;3.00;;
62419;SDS011;48460;51.616;5.426;2023-07-22T13:16:05;8.40;;;3.10;;
62419;SDS011;48460;51.616;5.426;2023-07-22T13:18:38;8.18;;;2.88;;
62419;SDS011;48460;51.616;5.426;2023-07-22T13:21:29;4.15;;;2.60;;
62419;SDS011;48460;51.616;5.426;2023-07-22T13:24:06;5.78;;;2.80;;
62419;SDS011;48460;51.616;5.426;2023-07-22T13:26:40;5.03;;;3.20;;
62419;SDS011;48460;51.616;5.426;2023-07-22T13:29:13;7.20;;;2.90;;
62419;SDS011;48460;51.616;5.426;2023-07-22T13:31:53;6.68;;;2.90;;
62419;SDS011;48460;51.616;5.426;2023-07-22T13:34:21;5.28;;;2.70;;
62419;SDS011;48460;51.616;5.426;2023-07-22T13:36:54;5.18;;;2.85;;
62419;SDS011;48460;51.616;5.426;2023-07-22T13:39:50;6.32;;;2.97;;
62419;SDS011;48460;51.616;5.426;2023-07-22T13:42:31;7.88;;;2.85;;
62419;SDS011;48460;51.616;5.426;2023-07-22T13:45:12;6.68;;;2.88;;
62419;SDS011;48460;51.616;5.426;2023-07-22T13:53:35;4.38;;;2.67;;
62419;SDS011;48460;51.616;5.426;2023-07-22T13:56:37;5.57;;;2.60;;
62419;SDS011;48460;51.616;5.426;2023-07-22T13:59:05;4.43;;;2.40;;
62419;SDS011;48460;51.616;5.426;2023-07-22T14:01:41;4.65;;;2.60;;
62419;SDS011;48460;51.616;5.426;2023-07-22T14:04:29;5.78;;;2.60;;
62419;SDS011;48460;51.616;5.426;2023-07-22T14:07:08;6.85;;;2.58;;
62419;SDS011;48460;51.616;5.426;2023-07-22T14:09:46;4.32;;;2.55;;
62419;SDS011;48460;51.616;5.426;2023-07-22T14:12:24;4.85;;;2.50;;
62419;SDS011;48460;51.616;5.426;2023-07-22T14:15:00;4.55;;;2.58;;
62419;SDS011;48460;51.616;5.426;2023-07-22T14:17:37;5.55;;;2.72;;
62419;SDS011;48460;51.616;5.426;2023-07-22T14:20:13;8.10;;;2.88;;
62419;SDS011;48460;51.616;5.426;2023-07-22T14:22:49;6.15;;;2.88;;
62419;SDS011;48460;51.616;5.426;2023-07-22T14:25:20;6.75;;;2.58;;
62419;SDS011;48460;51.616;5.426;2023-07-22T14:28:02;5.32;;;2.42;;
62419;SDS011;48460;51.616;5.426;2023-07-22T14:30:39;5.03;;;2.65;;
62419;SDS011;48460;51.616;5.426;2023-07-22T14:33:32;6.28;;;2.70;;
62419;SDS011;48460;51.616;5.426;2023-07-22T14:36:00;4.20;;;2.97;;
62419;SDS011;48460;51.616;5.426;2023-07-22T14:38:49;4.68;;;2.88;;
62419;SDS011;48460;51.616;5.426;2023-07-22T14:41:29;5.32;;;2.80;;
62419;SDS011;48460;51.616;5.426;2023-07-22T14:44:41;7.35;;;2.78;;
62419;SDS011;48460;51.616;5.426;2023-07-22T14:47:27;7.93;;;3.10;;
62419;SDS011;48460;51.616;5.426;2023-07-22T14:50:03;5.78;;;3.00;;
62419;SDS011;48460;51.616;5.426;2023-07-22T14:52:52;10.07;;;3.30;;
62419;SDS011;48460;51.616;5.426;2023-07-22T14:55:28;8.00;;;3.40;;
62419;SDS011;48460;51.616;5.426;2023-07-22T14:58:09;7.53;;;3.22;;
62419;SDS011;48460;51.616;5.426;2023-07-22T15:00:59;10.38;;;3.08;;
62419;SDS011;48460;51.616;5.426;2023-07-22T15:03:37;11.77;;;3.38;;
62419;SDS011;48460;51.616;5.426;2023-07-22T15:06:15;11.30;;;3.50;;
62419;SDS011;48460;51.616;5.426;2023-07-22T15:08:51;7.97;;;3.47;;
62419;SDS011;48460;51.616;5.426;2023-07-22T15:11:34;10.02;;;3.38;;
62419;SDS011;48460;51.616;5.426;2023-07-22T15:14:13;9.27;;;3.67;;
62419;SDS011;48460;51.616;5.426;2023-07-22T15:19:28;7.72;;;3.33;;
62419;SDS011;48460;51.616;5.426;2023-07-22T15:24:56;9.00;;;3.40;;
62419;SDS011;48460;51.616;5.426;2023-07-22T15:27:27;7.60;;;3.50;;
62419;SDS011;48460;51.616;5.426;2023-07-22T15:29:52;8.52;;;3.78;;
62419;SDS011;48460;51.616;5.426;2023-07-22T15:32:20;10.50;;;3.80;;
62419;SDS011;48460;51.616;5.426;2023-07-22T15:34:51;11.80;;;3.53;;
62419;SDS011;48460;51.616;5.426;2023-07-22T15:37:25;10.35;;;3.65;;
62419;SDS011;48460;51.616;5.426;2023-07-22T15:40:02;8.23;;;3.60;;
62419;SDS011;48460;51.616;5.426;2023-07-22T15:42:51;8.65;;;3.30;;
62419;SDS011;48460;51.616;5.426;2023-07-22T15:45:27;8.10;;;3.53;;
62419;SDS011;48460;51.616;5.426;2023-07-22T15:48:22;10.25;;;3.55;;
62419;SDS011;48460;51.616;5.426;2023-07-22T15:51:00;8.23;;;3.50;;
62419;SDS011;48460;51.616;5.426;2023-07-22T15:53:50;5.65;;;3.10;;
62419;SDS011;48460;51.616;5.426;2023-07-22T15:56:21;8.82;;;3.47;;
62419;SDS011;48460;51.616;5.426;2023-07-22T15:58:46;8.45;;;3.30;;
62419;SDS011;48460;51.616;5.426;2023-07-22T16:01:41;8.38;;;3.80;;
62419;SDS011;48460;51.616;5.426;2023-07-22T16:04:16;6.25;;;3.22;;
62419;SDS011;48460;51.616;5.426;2023-07-22T16:06:44;12.90;;;3.40;;
62419;SDS011;48460;51.616;5.426;2023-07-22T16:09:12;7.32;;;3.40;;
62419;SDS011;48460;51.616;5.426;2023-07-22T16:11:48;9.27;;;3.45;;
62419;SDS011;48460;51.616;5.426;2023-07-22T16:14:22;10.98;;;3.20;;
62419;SDS011;48460;51.616;5.426;2023-07-22T16:16:53;8.73;;;3.30;;